Kruibeke, Belgium
Current Conditions -  °F | °C
As of 7:50 AM on Sunday 21 Dec 2014 (Local Time) from EBAW Reporting Station
Few Clouds Few Clouds  
Wind Chill: 36°   Ceiling: Unl
Heat Index: 41°   Visibility: 6mi
Dew Point: 37°   Wind: 8mph
Humidity: 87%   Direction: 220°SW
Pressure: 30.42"   Gusts: NA
Location:  51.17°N, 4.31°E
Report Text: EBAW 210650Z 22007KT 9999 FEW038 05/03 Q1030 NOSIG
Loading
Personal Weather Stations






























Interactive Weather Map New forecast layout! Learn more

10-Day Weather Forecast

Advertisements
Track Severe Weather on mobile